createdAt,value
2022-08-24T00:01:45.485Z,20.60
2022-08-24T00:05:47.289Z,20.70
2022-08-24T00:09:49.586Z,20.90
2022-08-24T00:13:53.369Z,20.80
2022-08-24T00:17:55.149Z,20.50
2022-08-24T00:21:57.313Z,20.60
2022-08-24T00:25:59.053Z,20.50
2022-08-24T00:30:01.191Z,20.90
2022-08-24T00:34:03.057Z,20.60
2022-08-24T00:38:05.137Z,20.40
2022-08-24T00:42:07.057Z,20.50
2022-08-24T00:46:18.597Z,20.40
2022-08-24T00:50:26.691Z,20.20
2022-08-24T00:54:31.923Z,20.00
2022-08-24T00:58:41.285Z,20.20
2022-08-24T01:02:48.321Z,20.20
2022-08-24T01:06:50.192Z,20.50
2022-08-24T01:11:12.616Z,20.40
2022-08-24T01:15:16.256Z,20.20
2022-08-24T01:19:31.098Z,20.20
2022-08-24T01:23:39.241Z,20.30
2022-08-24T01:27:42.258Z,19.60
2022-08-24T01:31:44.442Z,19.20
2022-08-24T01:35:47.481Z,19.00
2022-08-24T01:39:51.981Z,18.90
2022-08-24T01:43:53.890Z,18.50
2022-08-24T01:47:55.591Z,18.50
2022-08-24T01:51:57.863Z,18.40
2022-08-24T01:55:59.715Z,18.60
2022-08-24T02:00:02.050Z,18.40
2022-08-24T02:04:05.597Z,18.30
2022-08-24T02:08:08.178Z,17.80
2022-08-24T02:12:10.069Z,17.90
2022-08-24T02:16:11.979Z,18.40
2022-08-24T02:20:13.769Z,17.70
2022-08-24T02:24:15.717Z,18.40
2022-08-24T02:28:18.398Z,18.40
2022-08-24T02:32:20.523Z,18.10
2022-08-24T02:36:25.376Z,18.20
2022-08-24T02:40:28.361Z,18.60
2022-08-24T02:44:30.137Z,18.20
2022-08-24T02:48:31.923Z,18.20
2022-08-24T02:52:35.845Z,18.50
2022-08-24T02:56:37.579Z,18.40
2022-08-24T03:00:45.089Z,17.90
2022-08-24T03:04:49.469Z,18.30
2022-08-24T03:08:56.224Z,17.80
2022-08-24T03:13:01.376Z,17.30
2022-08-24T03:17:03.748Z,17.60
2022-08-24T03:21:05.787Z,17.30
2022-08-24T03:25:09.333Z,16.10
2022-08-24T03:29:11.133Z,16.50
2022-08-24T03:33:13.443Z,17.20
2022-08-24T03:37:16.318Z,17.00
2022-08-24T03:41:18.068Z,17.20
2022-08-24T03:45:21.473Z,17.50
2022-08-24T03:49:23.644Z,17.30
2022-08-24T03:53:25.394Z,17.40
2022-08-24T03:57:27.133Z,17.10
2022-08-24T04:01:28.985Z,17.40
2022-08-24T04:05:34.919Z,17.60
2022-08-24T04:09:36.958Z,17.70
2022-08-24T04:13:39.034Z,17.70
2022-08-24T04:17:40.755Z,17.40
2022-08-24T04:21:44.187Z,17.10
2022-08-24T04:25:48.373Z,17.90
2022-08-24T04:29:50.089Z,17.90
2022-08-24T04:33:53.962Z,18.00
2022-08-24T04:37:55.987Z,16.90
2022-08-24T04:41:59.961Z,17.20
2022-08-24T04:46:09.012Z,17.30
2022-08-24T04:50:10.747Z,18.10
2022-08-24T04:54:12.520Z,18.00
2022-08-24T04:58:15.891Z,18.30
2022-08-24T05:02:18.242Z,18.70
2022-08-24T05:06:21.764Z,18.30
2022-08-24T05:10:23.578Z,18.40
2022-08-24T05:14:28.851Z,18.40
2022-08-24T05:18:32.837Z,18.60
2022-08-24T05:22:34.803Z,17.80
2022-08-24T05:26:37.965Z,17.80
2022-08-24T05:30:42.689Z,17.70
2022-08-24T05:34:44.705Z,18.10
2022-08-24T05:38:47.926Z,18.30
2022-08-24T05:42:50.361Z,18.60
2022-08-24T05:46:52.544Z,18.70
2022-08-24T05:50:56.389Z,18.50
2022-08-24T05:54:59.312Z,18.70
2022-08-24T05:59:01.559Z,19.10
2022-08-24T06:03:03.918Z,19.10
2022-08-24T06:07:10.236Z,19.00
2022-08-24T06:11:19.485Z,19.40
2022-08-24T06:15:22.042Z,19.20
2022-08-24T06:19:24.638Z,19.60
2022-08-24T06:23:26.403Z,19.90
2022-08-24T06:27:28.788Z,19.60
2022-08-24T06:31:39.399Z,19.60
2022-08-24T06:35:46.656Z,20.00
2022-08-24T06:39:48.921Z,19.70
2022-08-24T06:43:56.975Z,20.00
2022-08-24T06:47:58.698Z,20.50
2022-08-24T06:52:00.572Z,21.10
2022-08-24T06:56:02.442Z,21.60
2022-08-24T07:00:05.417Z,21.90
2022-08-24T07:04:07.126Z,21.70
2022-08-24T07:08:08.881Z,21.70
2022-08-24T07:12:10.598Z,22.10
2022-08-24T07:16:12.613Z,22.30
2022-08-24T07:20:14.348Z,22.60
2022-08-24T07:24:16.088Z,22.80
2022-08-24T07:28:17.974Z,23.00
2022-08-24T07:32:33.705Z,22.90
2022-08-24T07:36:38.078Z,23.00
2022-08-24T07:41:09.430Z,22.80
2022-08-24T07:45:10.109Z,23.30
2022-08-24T07:49:31.637Z,23.50
2022-08-24T07:53:52.487Z,23.20
2022-08-24T07:57:55.224Z,23.60
2022-08-24T08:01:57.719Z,23.80
2022-08-24T08:06:02.102Z,24.00
2022-08-24T08:10:04.377Z,23.80
2022-08-24T08:14:06.131Z,24.00
2022-08-24T08:18:08.292Z,24.10
2022-08-24T08:22:29.074Z,24.10
2022-08-24T08:26:30.811Z,23.90
2022-08-24T08:30:33.237Z,24.40
2022-08-24T08:34:36.009Z,24.30
2022-08-24T08:38:40.591Z,23.60
2022-08-24T08:42:47.926Z,23.90
2022-08-24T08:47:20.053Z,24.20
2022-08-24T08:51:21.747Z,24.50
2022-08-24T08:55:41.713Z,24.50
2022-08-24T08:59:54.156Z,24.80
2022-08-24T09:04:25.527Z,24.70
2022-08-24T09:09:02.697Z,24.90
2022-08-24T09:13:31.897Z,25.00
2022-08-24T09:17:59.598Z,25.00
2022-08-24T09:22:19.796Z,25.00
2022-08-24T09:26:29.047Z,24.70
2022-08-24T09:31:01.328Z,25.10
2022-08-24T09:35:26.441Z,24.60
2022-08-24T09:39:48.780Z,25.10
2022-08-24T09:44:09.227Z,25.40
2022-08-24T09:48:44.884Z,25.30
2022-08-24T09:52:55.820Z,25.40
2022-08-24T09:57:20.159Z,25.40
2022-08-24T10:01:38.019Z,25.70
2022-08-24T10:05:58.788Z,25.70
2022-08-24T10:10:28.721Z,25.80
2022-08-24T10:14:45.410Z,25.90
2022-08-24T10:19:06.792Z,26.00
2022-08-24T10:23:52.118Z,26.00
2022-08-24T10:28:12.529Z,26.20
2022-08-24T10:32:19.437Z,26.30
2022-08-24T10:36:41.250Z,26.10
2022-08-24T10:41:14.378Z,26.20
2022-08-24T10:45:53.549Z,25.80
2022-08-24T10:50:18.717Z,26.30
2022-08-24T10:54:21.177Z,26.60
2022-08-24T10:58:45.362Z,26.80
2022-08-24T11:02:48.908Z,26.30
2022-08-24T11:07:29.668Z,26.70
2022-08-24T11:11:40.792Z,26.90
2022-08-24T11:16:08.677Z,26.90
2022-08-24T11:20:31.247Z,26.70
2022-08-24T11:24:45.981Z,26.80
2022-08-24T11:28:53.669Z,27.00
2022-08-24T11:33:05.005Z,27.10
2022-08-24T11:37:15.013Z,27.00
2022-08-24T11:41:42.090Z,26.90
2022-08-24T11:45:59.033Z,27.50
2022-08-24T11:50:33.296Z,27.30
2022-08-24T11:54:48.702Z,26.50
2022-08-24T11:59:10.648Z,26.60
2022-08-24T12:03:29.518Z,27.30
2022-08-24T12:07:57.750Z,27.30
2022-08-24T12:12:37.220Z,27.10
2022-08-24T12:16:51.604Z,27.20
2022-08-24T12:20:54.450Z,27.60
2022-08-24T12:24:59.602Z,27.50
2022-08-24T12:29:24.504Z,28.00
2022-08-24T12:33:32.118Z,27.90
2022-08-24T12:38:08.981Z,28.20
2022-08-24T12:42:19.578Z,28.40
2022-08-24T12:46:24.025Z,27.70
2022-08-24T12:50:33.894Z,28.30
2022-08-24T12:54:47.702Z,28.20
2022-08-24T12:59:04.357Z,28.50
2022-08-24T13:03:23.573Z,28.60
2022-08-24T13:07:25.282Z,28.40
2022-08-24T13:11:28.472Z,28.70
2022-08-24T13:15:30.179Z,28.50
2022-08-24T13:19:38.774Z,28.40
2022-08-24T13:23:40.469Z,28.30
2022-08-24T13:27:42.174Z,28.50
2022-08-24T13:31:53.998Z,28.70
2022-08-24T13:36:01.319Z,28.70
2022-08-24T13:40:19.033Z,28.60
2022-08-24T13:44:48.084Z,28.90
2022-08-24T13:49:23.313Z,29.30
2022-08-24T13:53:34.356Z,28.80
2022-08-24T13:57:45.474Z,28.40
2022-08-24T14:01:59.521Z,28.60
2022-08-24T14:06:21.544Z,28.90
2022-08-24T14:10:32.913Z,29.20
2022-08-24T14:14:59.350Z,29.00
2022-08-24T14:19:19.503Z,28.90
2022-08-24T14:23:34.883Z,28.90
2022-08-24T14:28:03.954Z,29.00
2022-08-24T14:32:12.324Z,29.10
2022-08-24T14:36:17.887Z,29.10
2022-08-24T14:40:37.366Z,28.80
2022-08-24T14:44:56.811Z,28.10
2022-08-24T14:49:02.651Z,28.90
2022-08-24T14:53:16.640Z,29.20
2022-08-24T14:57:25.744Z,29.30
2022-08-24T15:01:53.719Z,28.90
2022-08-24T15:06:28.546Z,28.70
2022-08-24T15:10:59.609Z,28.50
2022-08-24T15:15:31.183Z,28.80
2022-08-24T15:20:07.081Z,28.70
2022-08-24T15:24:22.329Z,27.80
2022-08-24T15:28:28.363Z,27.80
2022-08-24T15:33:11.481Z,28.40
2022-08-24T15:37:16.459Z,28.90
2022-08-24T15:41:35.521Z,28.60
2022-08-24T15:45:43.290Z,27.70
2022-08-24T15:50:02.181Z,27.80
2022-08-24T15:54:30.036Z,28.40
2022-08-24T15:58:39.440Z,28.80
2022-08-24T16:02:41.912Z,28.80
2022-08-24T16:06:46.706Z,28.90
2022-08-24T16:10:57.290Z,28.90
2022-08-24T16:15:15.698Z,28.90
2022-08-24T16:19:27.886Z,29.20
2022-08-24T16:23:31.594Z,29.10
2022-08-24T16:28:12.777Z,29.00
2022-08-24T16:32:22.915Z,29.10
2022-08-24T16:36:32.142Z,29.20
2022-08-24T16:40:35.221Z,29.00
2022-08-24T16:44:40.242Z,28.90
2022-08-24T16:48:41.966Z,28.70
2022-08-24T16:52:43.761Z,28.90
2022-08-24T16:56:46.295Z,28.80
2022-08-24T17:00:49.515Z,28.70
2022-08-24T17:04:51.750Z,28.40
2022-08-24T17:08:53.620Z,28.50
2022-08-24T17:12:55.393Z,28.70
2022-08-24T17:16:58.717Z,28.40
2022-08-24T17:21:01.336Z,27.90
2022-08-24T17:25:03.883Z,27.60
2022-08-24T17:29:09.394Z,27.40
2022-08-24T17:33:12.776Z,27.60
2022-08-24T17:37:14.970Z,27.80
2022-08-24T17:41:18.591Z,27.40
2022-08-24T17:45:22.729Z,27.60
2022-08-24T17:49:26.006Z,27.80
2022-08-24T17:53:27.821Z,28.00
2022-08-24T17:57:29.556Z,28.10
2022-08-24T18:01:32.128Z,28.00
2022-08-24T18:05:34.375Z,27.90
2022-08-24T18:09:40.561Z,27.70
2022-08-24T18:13:42.705Z,27.80
2022-08-24T18:17:48.106Z,27.90
2022-08-24T18:21:49.809Z,27.80
2022-08-24T18:25:51.790Z,27.70
2022-08-24T18:29:57.447Z,27.70
2022-08-24T18:33:59.339Z,27.70
2022-08-24T18:38:01.351Z,27.60
2022-08-24T18:42:06.170Z,27.50
2022-08-24T18:46:08.916Z,27.40
2022-08-24T18:50:12.034Z,27.20
2022-08-24T18:54:24.598Z,27.10
2022-08-24T18:58:26.384Z,27.10
2022-08-24T19:02:30.575Z,27.00
2022-08-24T19:06:32.431Z,27.00
2022-08-24T19:10:36.669Z,26.90
2022-08-24T19:14:38.566Z,26.50
2022-08-24T19:18:40.341Z,26.50
2022-08-24T19:22:42.596Z,26.00
2022-08-24T19:26:44.434Z,25.80
2022-08-24T19:30:46.848Z,25.30
2022-08-24T19:34:48.925Z,25.30
2022-08-24T19:38:50.665Z,25.40
2022-08-24T19:42:55.512Z,25.60
2022-08-24T19:46:57.844Z,25.60
2022-08-24T19:51:02.813Z,25.10
2022-08-24T19:55:07.213Z,25.00
2022-08-24T19:59:20.959Z,24.50
2022-08-24T20:03:23.069Z,24.40
2022-08-24T20:07:24.968Z,24.50
2022-08-24T20:11:27.328Z,24.60
2022-08-24T20:15:29.280Z,24.40
2022-08-24T20:19:37.784Z,24.50
2022-08-24T20:23:40.076Z,24.40
2022-08-24T20:27:45.414Z,24.40
2022-08-24T20:31:50.715Z,24.30
2022-08-24T20:35:56.264Z,24.10
2022-08-24T20:39:59.201Z,24.00
2022-08-24T20:44:01.663Z,23.60
2022-08-24T20:48:04.913Z,23.40
2022-08-24T20:52:08.162Z,23.60
2022-08-24T20:56:21.021Z,23.30
2022-08-24T21:00:31.842Z,22.50
2022-08-24T21:04:33.620Z,22.50
2022-08-24T21:08:38.686Z,22.70
2022-08-24T21:12:40.398Z,22.60
2022-08-24T21:16:46.265Z,22.90
2022-08-24T21:21:03.156Z,22.50
2022-08-24T21:25:09.305Z,22.60
2022-08-24T21:29:11.479Z,23.10
2022-08-24T21:33:31.701Z,23.30
2022-08-24T21:37:33.408Z,23.70
2022-08-24T21:41:35.202Z,23.30
2022-08-24T21:45:37.001Z,23.30
2022-08-24T21:49:41.122Z,23.20
2022-08-24T21:53:42.803Z,23.40
2022-08-24T21:57:44.555Z,23.20
2022-08-24T22:01:46.393Z,23.00
2022-08-24T22:05:48.229Z,23.30
2022-08-24T22:09:49.898Z,23.40
2022-08-24T22:13:53.309Z,23.00
2022-08-24T22:17:55.276Z,23.10
2022-08-24T22:21:57.061Z,23.00
2022-08-24T22:25:58.797Z,23.20
2022-08-24T22:30:00.522Z,22.80
2022-08-24T22:34:08.696Z,22.60
2022-08-24T22:38:10.647Z,22.50
2022-08-24T22:42:12.402Z,22.70
2022-08-24T22:46:14.532Z,23.10
2022-08-24T22:50:16.657Z,22.80
2022-08-24T22:54:19.545Z,22.60
2022-08-24T22:58:21.260Z,22.70
2022-08-24T23:02:23.725Z,22.70
2022-08-24T23:06:26.750Z,22.90
2022-08-24T23:10:28.515Z,22.70
2022-08-24T23:14:30.440Z,22.70
2022-08-24T23:18:51.672Z,22.40
2022-08-24T23:22:53.382Z,21.90
2022-08-24T23:26:55.201Z,22.00
2022-08-24T23:30:57.136Z,22.10
2022-08-24T23:34:58.990Z,22.20
2022-08-24T23:39:01.517Z,22.70
2022-08-24T23:43:03.246Z,22.60
2022-08-24T23:47:05.277Z,22.70
2022-08-24T23:51:11.825Z,22.30
2022-08-24T23:55:21.131Z,22.10
2022-08-24T23:59:27.968Z,21.80
